createdAt,value
2022-07-29T00:00:04.705Z,19.68
2022-07-29T00:01:04.711Z,19.67
2022-07-29T00:02:04.855Z,19.66
2022-07-29T00:03:04.747Z,19.65
2022-07-29T00:04:04.735Z,19.64
2022-07-29T00:05:04.670Z,19.63
2022-07-29T00:06:04.645Z,19.63
2022-07-29T00:07:04.646Z,19.63
2022-07-29T00:08:08.202Z,19.62
2022-07-29T00:09:05.619Z,19.62
2022-07-29T00:10:04.609Z,19.61
2022-07-29T00:11:04.611Z,19.60
2022-07-29T00:12:04.586Z,19.60
2022-07-29T00:13:04.567Z,19.59
2022-07-29T00:14:04.782Z,19.58
2022-07-29T00:15:04.556Z,19.57
2022-07-29T00:16:05.139Z,19.57
2022-07-29T00:17:04.531Z,19.56
2022-07-29T00:18:04.525Z,19.56
2022-07-29T00:19:04.521Z,19.56
2022-07-29T00:20:04.664Z,19.56
2022-07-29T00:21:04.488Z,19.56
2022-07-29T00:22:04.475Z,19.56
2022-07-29T00:23:04.464Z,19.56
2022-07-29T00:24:04.446Z,19.56
2022-07-29T00:25:04.448Z,19.55
2022-07-29T00:26:04.928Z,19.55
2022-07-29T00:27:04.417Z,19.54
2022-07-29T00:28:04.405Z,19.53
2022-07-29T00:29:32.938Z,19.51
2022-07-29T00:30:05.407Z,19.49
2022-07-29T00:31:04.436Z,19.48
2022-07-29T00:32:04.682Z,19.46
2022-07-29T00:33:08.954Z,19.46
2022-07-29T00:34:04.347Z,19.44
2022-07-29T00:35:04.332Z,19.43
2022-07-29T00:36:04.330Z,19.41
2022-07-29T00:37:04.315Z,19.40
2022-07-29T00:38:04.509Z,19.38
2022-07-29T00:39:04.297Z,19.36
2022-07-29T00:40:04.279Z,19.34
2022-07-29T00:41:04.268Z,19.32
2022-07-29T00:42:04.273Z,19.30
2022-07-29T00:43:04.256Z,19.29
2022-07-29T00:44:04.392Z,19.27
2022-07-29T00:45:04.228Z,19.26
2022-07-29T00:46:04.225Z,19.25
2022-07-29T00:47:04.292Z,19.24
2022-07-29T00:48:04.202Z,19.24
2022-07-29T00:49:04.229Z,19.24
2022-07-29T00:50:04.337Z,19.24
2022-07-29T00:51:04.162Z,19.24
2022-07-29T00:52:04.148Z,19.25
2022-07-29T00:53:04.151Z,19.26
2022-07-29T00:54:04.120Z,19.27
2022-07-29T00:55:08.489Z,19.27
2022-07-29T00:56:04.323Z,19.27
2022-07-29T00:57:04.101Z,19.27
2022-07-29T00:58:04.096Z,19.27
2022-07-29T00:59:04.079Z,19.26
2022-07-29T01:00:04.076Z,19.23
2022-07-29T01:01:04.154Z,19.19
2022-07-29T01:02:04.387Z,19.15
2022-07-29T01:03:04.720Z,19.12
2022-07-29T01:04:04.020Z,19.09
2022-07-29T01:05:04.025Z,19.08
2022-07-29T01:06:04.004Z,19.07
2022-07-29T01:07:03.997Z,19.08
2022-07-29T01:08:04.152Z,19.08
2022-07-29T01:09:04.002Z,19.08
2022-07-29T01:10:03.963Z,19.08
2022-07-29T01:11:03.961Z,19.08
2022-07-29T01:12:03.930Z,19.08
2022-07-29T01:13:03.940Z,19.08
2022-07-29T01:14:04.076Z,19.07
2022-07-29T01:15:03.900Z,19.07
2022-07-29T01:16:03.934Z,19.08
2022-07-29T01:17:03.892Z,19.08
2022-07-29T01:18:03.882Z,19.08
2022-07-29T01:19:03.865Z,19.08
2022-07-29T01:20:04.014Z,19.07
2022-07-29T01:21:03.834Z,19.06
2022-07-29T01:22:03.832Z,19.06
2022-07-29T01:23:03.834Z,19.05
2022-07-29T01:24:03.819Z,19.04
2022-07-29T01:25:03.797Z,19.02
2022-07-29T01:26:03.969Z,19.01
2022-07-29T01:27:03.779Z,19.00
2022-07-29T01:28:03.769Z,19.00
2022-07-29T01:29:07.414Z,19.00
2022-07-29T01:30:05.448Z,19.00
2022-07-29T01:31:03.777Z,19.00
2022-07-29T01:32:03.927Z,19.00
2022-07-29T01:33:03.746Z,19.00
2022-07-29T01:34:03.711Z,18.99
2022-07-29T01:35:03.689Z,18.99
2022-07-29T01:36:03.675Z,18.98
2022-07-29T01:37:03.675Z,18.98
2022-07-29T01:38:03.842Z,18.97
2022-07-29T01:39:03.659Z,18.96
2022-07-29T01:40:03.644Z,18.94
2022-07-29T01:41:03.635Z,18.93
2022-07-29T01:42:03.610Z,18.92
2022-07-29T01:43:03.609Z,18.91
2022-07-29T01:44:03.818Z,18.90
2022-07-29T01:45:03.606Z,18.89
2022-07-29T01:46:03.585Z,18.88
2022-07-29T01:47:03.616Z,18.86
2022-07-29T01:48:03.568Z,18.84
2022-07-29T01:49:03.594Z,18.82
2022-07-29T01:50:03.699Z,18.81
2022-07-29T01:51:03.525Z,18.80
2022-07-29T01:52:03.516Z,18.80
2022-07-29T01:53:03.505Z,18.80
2022-07-29T01:54:03.487Z,18.80
2022-07-29T01:55:03.482Z,18.79
2022-07-29T01:56:03.856Z,18.78
2022-07-29T01:57:03.476Z,18.77
2022-07-29T01:58:03.447Z,18.75
2022-07-29T01:59:03.448Z,18.74
2022-07-29T02:00:03.416Z,18.72
2022-07-29T02:01:03.417Z,18.72
2022-07-29T02:02:03.790Z,18.71
2022-07-29T02:03:03.396Z,18.71
2022-07-29T02:04:03.387Z,18.70
2022-07-29T02:05:03.467Z,18.70
2022-07-29T02:06:03.356Z,18.69
2022-07-29T02:07:03.351Z,18.69
2022-07-29T02:08:03.487Z,18.69
2022-07-29T02:09:03.318Z,18.69
2022-07-29T02:10:03.319Z,18.69
2022-07-29T02:11:03.308Z,18.70
2022-07-29T02:12:03.297Z,18.70
2022-07-29T02:13:03.290Z,18.70
2022-07-29T02:14:03.425Z,18.70
2022-07-29T02:15:03.258Z,18.69
2022-07-29T02:16:03.330Z,18.68
2022-07-29T02:17:03.248Z,18.68
2022-07-29T02:18:03.229Z,18.67
2022-07-29T02:19:03.376Z,18.66
2022-07-29T02:20:03.218Z,18.65
2022-07-29T02:21:03.224Z,18.64
2022-07-29T02:22:03.210Z,18.62
2022-07-29T02:23:03.190Z,18.61
2022-07-29T02:24:03.172Z,18.60
2022-07-29T02:25:03.896Z,18.59
2022-07-29T02:26:03.142Z,18.57
2022-07-29T02:27:03.147Z,18.55
2022-07-29T02:28:03.134Z,18.53
2022-07-29T02:29:03.122Z,18.52
2022-07-29T02:30:03.096Z,18.51
2022-07-29T02:31:03.376Z,18.50
2022-07-29T02:32:03.076Z,18.49
2022-07-29T02:33:03.058Z,18.48
2022-07-29T02:34:03.057Z,18.47
2022-07-29T02:35:03.052Z,18.47
2022-07-29T02:36:03.035Z,18.47
2022-07-29T02:37:03.253Z,18.47
2022-07-29T02:38:03.020Z,18.47
2022-07-29T02:39:03.005Z,18.47
2022-07-29T02:40:03.162Z,18.47
2022-07-29T02:41:02.974Z,18.46
2022-07-29T02:42:02.969Z,18.45
2022-07-29T02:43:02.960Z,18.44
2022-07-29T02:44:02.948Z,18.43
2022-07-29T02:45:02.936Z,18.42
2022-07-29T02:46:03.179Z,18.41
2022-07-29T02:47:02.950Z,18.41
2022-07-29T02:48:02.902Z,18.40
2022-07-29T02:49:02.946Z,18.39
2022-07-29T02:50:02.879Z,18.37
2022-07-29T02:51:02.868Z,18.36
2022-07-29T02:52:03.012Z,18.34
2022-07-29T02:53:02.848Z,18.33
2022-07-29T02:54:02.855Z,18.31
2022-07-29T02:55:02.836Z,18.30
2022-07-29T02:56:02.815Z,18.28
2022-07-29T02:57:02.817Z,18.27
2022-07-29T02:58:02.998Z,18.26
2022-07-29T02:59:02.792Z,18.26
2022-07-29T03:00:02.767Z,18.25
2022-07-29T03:01:02.759Z,18.25
2022-07-29T03:02:02.858Z,18.24
2022-07-29T03:03:02.746Z,18.23
2022-07-29T03:04:02.918Z,18.23
2022-07-29T03:05:02.817Z,18.22
2022-07-29T03:06:02.705Z,18.22
2022-07-29T03:07:02.710Z,18.22
2022-07-29T03:08:02.685Z,18.21
2022-07-29T03:09:02.680Z,18.20
2022-07-29T03:10:02.837Z,18.19
2022-07-29T03:11:02.660Z,18.19
2022-07-29T03:12:02.643Z,18.19
2022-07-29T03:13:02.634Z,18.19
2022-07-29T03:14:02.623Z,18.19
2022-07-29T03:15:02.609Z,18.20
2022-07-29T03:16:02.825Z,18.19
2022-07-29T03:17:02.591Z,18.19
2022-07-29T03:18:02.569Z,18.19
2022-07-29T03:19:02.567Z,18.18
2022-07-29T03:20:02.561Z,18.17
2022-07-29T03:21:02.550Z,18.16
2022-07-29T03:22:02.730Z,18.15
2022-07-29T03:23:02.527Z,18.14
2022-07-29T03:24:06.753Z,18.13
2022-07-29T03:25:03.517Z,18.11
2022-07-29T03:26:02.491Z,18.10
2022-07-29T03:27:02.481Z,18.09
2022-07-29T03:28:02.688Z,18.10
2022-07-29T03:29:02.467Z,18.10
2022-07-29T03:30:02.450Z,18.10
2022-07-29T03:31:02.494Z,18.09
2022-07-29T03:32:03.525Z,18.09
2022-07-29T03:33:02.424Z,18.08
2022-07-29T03:34:03.105Z,18.07
2022-07-29T03:35:02.399Z,18.06
2022-07-29T03:36:02.384Z,18.05
2022-07-29T03:37:02.380Z,18.04
2022-07-29T03:38:02.361Z,18.04
2022-07-29T03:39:02.356Z,18.03
2022-07-29T03:40:02.550Z,18.03
2022-07-29T03:41:02.332Z,18.02
2022-07-29T03:42:02.320Z,18.02
2022-07-29T03:43:02.310Z,18.01
2022-07-29T03:44:02.295Z,18.00
2022-07-29T03:45:02.291Z,17.99
2022-07-29T03:46:03.036Z,17.99
2022-07-29T03:47:02.271Z,18.00
2022-07-29T03:48:02.252Z,18.01
2022-07-29T03:49:02.348Z,18.02
2022-07-29T03:50:02.232Z,18.03
2022-07-29T03:51:02.228Z,18.03
2022-07-29T03:52:02.363Z,18.02
2022-07-29T03:53:02.202Z,18.00
2022-07-29T03:54:05.002Z,18.00
2022-07-29T03:55:03.180Z,17.99
2022-07-29T03:56:02.171Z,17.98
2022-07-29T03:57:02.483Z,17.97
2022-07-29T03:58:02.149Z,17.96
2022-07-29T03:59:02.131Z,17.95
2022-07-29T04:00:02.126Z,17.95
2022-07-29T04:01:02.127Z,17.94
2022-07-29T04:02:02.180Z,17.93
2022-07-29T04:03:02.373Z,17.93
2022-07-29T04:04:02.123Z,17.93
2022-07-29T04:05:02.066Z,17.93
2022-07-29T04:06:02.066Z,17.94
2022-07-29T04:07:02.057Z,17.94
2022-07-29T04:08:02.054Z,17.94
2022-07-29T04:09:02.667Z,17.94
2022-07-29T04:10:02.028Z,17.94
2022-07-29T04:11:02.008Z,17.94
2022-07-29T04:12:04.210Z,17.93
2022-07-29T04:13:01.994Z,17.92
2022-07-29T04:14:01.978Z,17.91
2022-07-29T04:15:02.276Z,17.90
2022-07-29T04:16:01.992Z,17.88
2022-07-29T04:17:01.938Z,17.86
2022-07-29T04:18:01.931Z,17.84
2022-07-29T04:19:01.918Z,17.83
2022-07-29T04:20:02.063Z,17.81
2022-07-29T04:21:01.897Z,17.81
2022-07-29T04:22:01.890Z,17.80
2022-07-29T04:23:01.874Z,17.80
2022-07-29T04:24:01.866Z,17.80
2022-07-29T04:25:04.302Z,17.80
2022-07-29T04:26:01.855Z,17.80
2022-07-29T04:27:01.828Z,17.80
2022-07-29T04:28:01.829Z,17.80
2022-07-29T04:29:01.822Z,17.80
2022-07-29T04:30:01.800Z,17.80
2022-07-29T04:31:01.998Z,17.81
2022-07-29T04:32:01.783Z,17.82
2022-07-29T04:33:01.828Z,17.82
2022-07-29T04:34:01.754Z,17.82
2022-07-29T04:35:01.743Z,17.82
2022-07-29T04:36:01.761Z,17.82
2022-07-29T04:37:01.901Z,17.82
2022-07-29T04:38:01.714Z,17.81
2022-07-29T04:39:01.703Z,17.80
2022-07-29T04:40:01.695Z,17.79
2022-07-29T04:41:01.701Z,17.78
2022-07-29T04:42:01.690Z,17.78
2022-07-29T04:43:01.821Z,17.78
2022-07-29T04:44:01.737Z,17.78
2022-07-29T04:45:01.657Z,17.79
2022-07-29T04:46:01.658Z,17.80
2022-07-29T04:47:01.625Z,17.81
2022-07-29T04:48:01.602Z,17.81
2022-07-29T04:49:01.680Z,17.82
2022-07-29T04:50:01.704Z,17.83
2022-07-29T04:51:01.594Z,17.83
2022-07-29T04:52:01.646Z,17.83
2022-07-29T04:53:01.555Z,17.82
2022-07-29T04:54:01.554Z,17.82
2022-07-29T04:55:01.530Z,17.82
2022-07-29T04:56:01.683Z,17.82
2022-07-29T04:57:01.836Z,17.82
2022-07-29T04:58:01.540Z,17.83
2022-07-29T04:59:01.489Z,17.83
2022-07-29T05:00:01.494Z,17.84
2022-07-29T05:01:01.505Z,17.84
2022-07-29T05:02:01.540Z,17.84
2022-07-29T05:03:01.709Z,17.83
2022-07-29T05:04:01.446Z,17.83
2022-07-29T05:05:01.430Z,17.83
2022-07-29T05:06:01.423Z,17.83
2022-07-29T05:07:01.409Z,17.84
2022-07-29T05:08:01.397Z,17.84
2022-07-29T05:09:01.802Z,17.84
2022-07-29T05:10:01.376Z,17.84
2022-07-29T05:11:11.617Z,17.83
2022-07-29T05:12:02.345Z,17.82
2022-07-29T05:13:01.334Z,17.81
2022-07-29T05:14:01.337Z,17.80
2022-07-29T05:15:01.329Z,17.80
2022-07-29T05:16:01.341Z,17.80
2022-07-29T05:17:01.294Z,17.81
2022-07-29T05:18:01.287Z,17.81
2022-07-29T05:19:01.272Z,17.82
2022-07-29T05:20:01.264Z,17.83
2022-07-29T05:21:01.461Z,17.85
2022-07-29T05:22:01.254Z,17.88
2022-07-29T05:23:01.233Z,17.90
2022-07-29T05:24:01.226Z,17.93
2022-07-29T05:25:05.526Z,17.95
2022-07-29T05:26:02.536Z,17.99
2022-07-29T05:27:01.188Z,18.02
2022-07-29T05:28:01.175Z,18.05
2022-07-29T05:29:01.162Z,18.07
2022-07-29T05:30:01.156Z,18.08
2022-07-29T05:31:01.214Z,18.09
2022-07-29T05:32:01.293Z,18.10
2022-07-29T05:33:01.126Z,18.10
2022-07-29T05:34:01.108Z,18.11
2022-07-29T05:35:01.100Z,18.11
2022-07-29T05:36:01.301Z,18.13
2022-07-29T05:37:01.068Z,18.14
2022-07-29T05:38:01.227Z,18.16
2022-07-29T05:39:01.059Z,18.17
2022-07-29T05:40:01.049Z,18.17
2022-07-29T05:41:01.053Z,18.17
2022-07-29T05:42:01.037Z,18.18
2022-07-29T05:43:01.010Z,18.19
2022-07-29T05:44:01.174Z,18.20
2022-07-29T05:45:00.989Z,18.21
2022-07-29T05:46:01.055Z,18.23
2022-07-29T05:47:01.000Z,18.25
2022-07-29T05:48:00.959Z,18.27
2022-07-29T05:49:00.991Z,18.30
2022-07-29T05:50:00.969Z,18.32
2022-07-29T05:51:00.918Z,18.33
2022-07-29T05:52:01.033Z,18.35
2022-07-29T05:53:00.900Z,18.37
2022-07-29T05:54:01.889Z,18.40
2022-07-29T05:55:00.888Z,18.42
2022-07-29T05:56:01.026Z,18.44
2022-07-29T05:57:00.859Z,18.45
2022-07-29T05:58:00.858Z,18.45
2022-07-29T05:59:00.855Z,18.45
2022-07-29T06:00:00.861Z,18.44
2022-07-29T06:01:01.051Z,18.43
2022-07-29T06:02:00.849Z,18.41
2022-07-29T06:03:00.801Z,18.40
2022-07-29T06:04:00.804Z,18.39
2022-07-29T06:05:00.918Z,18.38
2022-07-29T06:06:00.772Z,18.38
2022-07-29T06:07:01.002Z,18.38
2022-07-29T06:08:00.759Z,18.40
2022-07-29T06:09:00.731Z,18.43
2022-07-29T06:10:01.726Z,18.48
2022-07-29T06:11:00.716Z,18.52
2022-07-29T06:12:00.879Z,18.54
2022-07-29T06:13:00.696Z,18.56
2022-07-29T06:14:00.679Z,18.60
2022-07-29T06:15:00.671Z,18.64
2022-07-29T06:16:00.697Z,18.68
2022-07-29T06:17:00.642Z,18.72
2022-07-29T06:18:01.645Z,18.75
2022-07-29T06:19:00.620Z,18.77
2022-07-29T06:20:00.608Z,18.81
2022-07-29T06:21:00.610Z,18.85
2022-07-29T06:22:00.592Z,18.89
2022-07-29T06:23:00.613Z,18.91
2022-07-29T06:24:00.741Z,18.93
2022-07-29T06:25:00.566Z,18.97
2022-07-29T06:26:00.551Z,19.00
2022-07-29T06:27:00.557Z,19.02
2022-07-29T06:28:00.531Z,19.04
2022-07-29T06:29:00.514Z,19.05
2022-07-29T06:30:00.777Z,19.06
2022-07-29T06:31:00.568Z,19.07
2022-07-29T06:32:00.489Z,19.08
2022-07-29T06:33:00.470Z,19.10
2022-07-29T06:34:00.469Z,19.14
2022-07-29T06:35:33.019Z,19.19
2022-07-29T06:36:01.591Z,19.25
2022-07-29T06:37:00.440Z,19.31
2022-07-29T06:38:00.422Z,19.37
2022-07-29T06:39:00.410Z,19.43
2022-07-29T06:40:00.405Z,19.49
2022-07-29T06:41:00.390Z,19.54
2022-07-29T06:42:00.531Z,19.59
2022-07-29T06:43:00.385Z,19.64
2022-07-29T06:44:00.370Z,19.69
2022-07-29T06:45:00.342Z,19.73
2022-07-29T06:46:01.352Z,19.76
2022-07-29T06:47:00.493Z,19.80
2022-07-29T06:48:00.315Z,19.84
2022-07-29T06:49:00.373Z,19.87
2022-07-29T06:50:00.292Z,19.91
2022-07-29T06:51:00.271Z,19.95
2022-07-29T06:52:00.270Z,20.00
2022-07-29T06:53:00.434Z,20.05
2022-07-29T06:54:03.289Z,20.09
2022-07-29T06:55:00.231Z,20.13
2022-07-29T06:56:00.226Z,20.18
2022-07-29T06:57:00.202Z,20.22
2022-07-29T06:58:00.206Z,20.26
2022-07-29T06:59:01.597Z,20.31
2022-07-29T07:00:00.184Z,20.35
2022-07-29T07:01:00.247Z,20.39
2022-07-29T07:02:00.210Z,20.43
2022-07-29T07:03:00.141Z,20.46
2022-07-29T07:04:00.140Z,20.49
2022-07-29T07:05:00.165Z,20.52
2022-07-29T07:06:00.127Z,20.56
2022-07-29T07:07:00.123Z,20.59
2022-07-29T07:08:00.104Z,20.62
2022-07-29T07:09:00.087Z,20.65
2022-07-29T07:10:00.145Z,20.68
2022-07-29T07:11:00.078Z,20.72
2022-07-29T07:12:00.051Z,20.73
2022-07-29T07:13:00.048Z,20.73
2022-07-29T07:14:03.568Z,20.73
2022-07-29T07:15:00.017Z,20.74
2022-07-29T07:16:00.198Z,20.77
2022-07-29T07:17:00.052Z,20.81
2022-07-29T07:17:59.999Z,20.86
2022-07-29T07:18:59.984Z,20.92
2022-07-29T07:19:59.962Z,20.99
2022-07-29T07:20:59.959Z,21.04
2022-07-29T07:22:00.288Z,21.09
2022-07-29T07:22:59.931Z,21.15
2022-07-29T07:23:59.934Z,21.19
2022-07-29T07:24:59.914Z,21.23
2022-07-29T07:25:59.912Z,21.26
2022-07-29T07:26:59.894Z,21.29
2022-07-29T07:28:00.050Z,21.32
2022-07-29T07:28:59.875Z,21.37
2022-07-29T07:29:59.864Z,21.42
2022-07-29T07:30:59.864Z,21.47
2022-07-29T07:32:01.232Z,21.53
2022-07-29T07:32:59.834Z,21.58
2022-07-29T07:33:59.974Z,21.63
2022-07-29T07:34:59.821Z,21.66
2022-07-29T07:35:59.803Z,21.69
2022-07-29T07:36:59.787Z,21.70
2022-07-29T07:37:59.782Z,21.70
2022-07-29T07:38:59.768Z,21.68
2022-07-29T07:39:59.914Z,21.65
2022-07-29T07:40:59.779Z,21.63
2022-07-29T07:41:59.737Z,21.62
2022-07-29T07:42:59.732Z,21.60
2022-07-29T07:43:59.713Z,21.58
2022-07-29T07:45:12.934Z,21.57
2022-07-29T07:46:00.739Z,21.55
2022-07-29T07:47:08.530Z,21.54
2022-07-29T07:48:00.680Z,21.53
2022-07-29T07:49:00.424Z,21.52
2022-07-29T07:49:59.656Z,21.52
2022-07-29T07:50:59.696Z,21.52
2022-07-29T07:51:59.634Z,21.53
2022-07-29T07:52:59.636Z,21.52
2022-07-29T07:53:59.678Z,21.51
2022-07-29T07:54:59.598Z,21.49
2022-07-29T07:56:10.422Z,21.47
2022-07-29T07:57:00.796Z,21.47
2022-07-29T07:57:59.559Z,21.47
2022-07-29T07:58:59.552Z,21.47
2022-07-29T07:59:59.548Z,21.47
2022-07-29T08:00:59.615Z,21.49
2022-07-29T08:01:59.648Z,21.50
2022-07-29T08:02:59.604Z,21.52
2022-07-29T08:03:59.506Z,21.55
2022-07-29T08:04:59.489Z,21.57
2022-07-29T08:05:59.488Z,21.60
2022-07-29T08:06:59.467Z,21.63
2022-07-29T08:07:59.466Z,21.68
2022-07-29T08:09:19.505Z,21.72
2022-07-29T08:10:00.438Z,21.76
2022-07-29T08:10:59.431Z,21.80
2022-07-29T08:11:59.414Z,21.84
2022-07-29T08:12:59.406Z,21.89
2022-07-29T08:13:59.407Z,21.93
2022-07-29T08:14:59.590Z,21.97
2022-07-29T08:15:59.368Z,21.99
2022-07-29T08:16:59.422Z,22.00
2022-07-29T08:17:59.519Z,22.01
2022-07-29T08:18:59.358Z,22.03
2022-07-29T08:19:59.330Z,22.05
2022-07-29T08:20:59.329Z,22.07
2022-07-29T08:21:59.315Z,22.10
2022-07-29T08:22:59.297Z,22.13
2022-07-29T08:24:02.896Z,22.17
2022-07-29T08:25:00.329Z,22.21
2022-07-29T08:25:59.280Z,22.24
2022-07-29T08:27:21.250Z,22.27
2022-07-29T08:28:00.253Z,22.30
2022-07-29T08:28:59.247Z,22.32
2022-07-29T08:29:59.269Z,22.34
2022-07-29T08:30:59.225Z,22.36
2022-07-29T08:31:59.320Z,22.38
2022-07-29T08:32:59.231Z,22.40
2022-07-29T08:33:59.206Z,22.43
2022-07-29T08:34:59.179Z,22.47
2022-07-29T08:35:59.195Z,22.53
2022-07-29T08:36:59.159Z,22.60
2022-07-29T08:37:59.158Z,22.67
2022-07-29T08:39:00.087Z,22.73
2022-07-29T08:39:59.129Z,22.79
2022-07-29T08:40:59.139Z,22.85
2022-07-29T08:41:59.289Z,22.91
2022-07-29T08:42:59.102Z,22.96
2022-07-29T08:43:59.087Z,23.00
2022-07-29T08:44:59.079Z,23.04
2022-07-29T08:45:59.207Z,23.07
2022-07-29T08:46:59.250Z,23.09
2022-07-29T08:47:59.035Z,23.09
2022-07-29T08:48:59.106Z,23.10
2022-07-29T08:49:59.038Z,23.10
2022-07-29T08:50:59.011Z,23.13
2022-07-29T08:51:59.381Z,23.16
2022-07-29T08:53:00.081Z,23.21
2022-07-29T08:53:58.984Z,23.26
2022-07-29T08:54:58.967Z,23.30
2022-07-29T08:55:58.962Z,23.34
2022-07-29T08:56:58.949Z,23.39
2022-07-29T08:57:58.940Z,23.44
2022-07-29T08:58:59.244Z,23.51
2022-07-29T09:00:00.102Z,23.58
2022-07-29T09:00:59.941Z,23.63
2022-07-29T09:01:59.279Z,23.68
2022-07-29T09:02:58.887Z,23.75
2022-07-29T09:03:58.966Z,23.80
2022-07-29T09:04:59.078Z,23.85
2022-07-29T09:05:58.860Z,23.90
2022-07-29T09:06:58.851Z,23.94
2022-07-29T09:07:58.835Z,23.98
2022-07-29T09:08:58.823Z,24.02
2022-07-29T09:09:58.805Z,24.04
2022-07-29T09:10:58.951Z,24.04
2022-07-29T09:11:58.794Z,24.05
2022-07-29T09:12:58.785Z,24.06
2022-07-29T09:13:58.765Z,24.10
2022-07-29T09:14:58.792Z,24.15
2022-07-29T09:15:59.025Z,24.19
2022-07-29T09:16:58.808Z,24.23
2022-07-29T09:17:58.725Z,24.28
2022-07-29T09:18:58.739Z,24.35
2022-07-29T09:19:58.705Z,24.42
2022-07-29T09:20:58.710Z,24.46
2022-07-29T09:21:58.898Z,24.48
2022-07-29T09:22:58.692Z,24.50
2022-07-29T09:23:58.662Z,24.50
2022-07-29T09:24:58.668Z,24.50
2022-07-29T09:25:58.646Z,24.51
2022-07-29T09:26:58.636Z,24.55
2022-07-29T09:27:58.632Z,24.60
2022-07-29T09:28:58.608Z,24.66
2022-07-29T09:29:58.603Z,24.73
2022-07-29T09:30:58.599Z,24.78
2022-07-29T09:31:58.642Z,24.82
2022-07-29T09:32:58.753Z,24.85
2022-07-29T09:33:58.581Z,24.87
2022-07-29T09:34:58.599Z,24.88
2022-07-29T09:35:58.541Z,24.88
2022-07-29T09:36:58.871Z,24.89
2022-07-29T09:37:58.526Z,24.92
2022-07-29T09:38:58.685Z,24.98
2022-07-29T09:39:58.482Z,25.05
2022-07-29T09:41:03.259Z,25.12
2022-07-29T09:41:59.493Z,25.20
2022-07-29T09:42:58.501Z,25.27
2022-07-29T09:43:58.453Z,25.33
2022-07-29T09:44:58.703Z,25.40
2022-07-29T09:45:58.433Z,25.46
2022-07-29T09:46:58.808Z,25.51
2022-07-29T09:47:58.403Z,25.54
2022-07-29T09:48:58.510Z,25.58
2022-07-29T09:49:58.389Z,25.63
2022-07-29T09:50:58.535Z,25.67
2022-07-29T09:51:58.370Z,25.70
2022-07-29T09:52:58.355Z,25.72
2022-07-29T09:53:58.365Z,25.77
2022-07-29T09:54:58.346Z,25.83
2022-07-29T09:55:58.534Z,25.88
2022-07-29T09:56:58.477Z,25.92
2022-07-29T09:57:58.315Z,25.95
2022-07-29T09:58:58.305Z,25.96
2022-07-29T09:59:58.288Z,25.93
2022-07-29T10:00:58.316Z,25.88
2022-07-29T10:01:58.843Z,25.84
2022-07-29T10:02:58.291Z,25.79
2022-07-29T10:03:58.235Z,25.78
2022-07-29T10:04:58.251Z,25.79
2022-07-29T10:05:58.236Z,25.81
2022-07-29T10:07:03.949Z,25.84
2022-07-29T10:07:59.357Z,25.88
2022-07-29T10:08:58.246Z,25.91
2022-07-29T10:09:58.176Z,25.95
2022-07-29T10:10:58.190Z,26.00
2022-07-29T10:11:58.422Z,26.03
2022-07-29T10:13:01.830Z,26.06
2022-07-29T10:14:00.094Z,26.10
2022-07-29T10:14:58.133Z,26.14
2022-07-29T10:15:58.315Z,26.15
2022-07-29T10:16:58.128Z,26.14
2022-07-29T10:17:58.087Z,26.11
2022-07-29T10:18:58.103Z,26.07
2022-07-29T10:19:58.077Z,26.06
2022-07-29T10:20:58.068Z,26.09
2022-07-29T10:21:58.375Z,26.15
2022-07-29T10:22:58.039Z,26.22
2022-07-29T10:23:59.527Z,26.31
2022-07-29T10:24:58.033Z,26.38
2022-07-29T10:25:57.997Z,26.44
2022-07-29T10:26:58.004Z,26.46
2022-07-29T10:27:58.148Z,26.46
2022-07-29T10:28:57.978Z,26.46
2022-07-29T10:29:57.949Z,26.46
2022-07-29T10:30:57.993Z,26.45
2022-07-29T10:31:58.396Z,26.41
2022-07-29T10:32:57.943Z,26.36
2022-07-29T10:33:58.093Z,26.29
2022-07-29T10:34:57.918Z,26.22
2022-07-29T10:35:57.900Z,26.18
2022-07-29T10:36:57.909Z,26.16
2022-07-29T10:37:57.898Z,26.14
2022-07-29T10:38:57.913Z,26.16
2022-07-29T10:39:57.876Z,26.20
2022-07-29T10:40:57.864Z,26.26
2022-07-29T10:41:58.207Z,26.33
2022-07-29T10:42:57.836Z,26.40
2022-07-29T10:43:57.810Z,26.48
2022-07-29T10:44:57.830Z,26.56
2022-07-29T10:45:57.811Z,26.65
2022-07-29T10:46:58.169Z,26.72
2022-07-29T10:47:57.779Z,26.76
2022-07-29T10:48:57.828Z,26.74
2022-07-29T10:49:57.752Z,26.70
2022-07-29T10:50:57.993Z,26.65
2022-07-29T10:51:58.234Z,26.59
2022-07-29T10:52:57.733Z,26.53
2022-07-29T10:53:57.713Z,26.46
2022-07-29T10:54:57.720Z,26.39
2022-07-29T10:55:57.690Z,26.33
2022-07-29T10:56:57.836Z,26.28
2022-07-29T10:57:57.668Z,26.23
2022-07-29T10:58:57.651Z,26.18
2022-07-29T10:59:57.665Z,26.14
2022-07-29T11:00:57.771Z,26.09
2022-07-29T11:02:27.820Z,26.05
2022-07-29T11:02:58.852Z,26.01
2022-07-29T11:03:57.615Z,26.01
2022-07-29T11:04:57.602Z,26.07
2022-07-29T11:05:59.907Z,26.15
2022-07-29T11:06:57.573Z,26.24
2022-07-29T11:07:57.569Z,26.34
2022-07-29T11:08:57.760Z,26.46
2022-07-29T11:09:57.562Z,26.58
2022-07-29T11:10:57.530Z,26.67
2022-07-29T11:11:57.721Z,26.73
2022-07-29T11:12:57.516Z,26.76
2022-07-29T11:13:57.487Z,26.78
2022-07-29T11:14:57.978Z,26.79
2022-07-29T11:15:57.472Z,26.82
2022-07-29T11:16:57.464Z,26.86
2022-07-29T11:17:59.191Z,26.92
2022-07-29T11:18:57.452Z,26.96
2022-07-29T11:19:57.437Z,26.96
2022-07-29T11:20:57.603Z,26.94
2022-07-29T11:21:58.499Z,26.90
2022-07-29T11:22:57.413Z,26.84
2022-07-29T11:23:57.383Z,26.78
2022-07-29T11:24:57.376Z,26.77
2022-07-29T11:25:57.375Z,26.77
2022-07-29T11:27:00.496Z,26.77
2022-07-29T11:27:57.349Z,26.73
2022-07-29T11:28:57.343Z,26.68
2022-07-29T11:29:57.318Z,26.61
2022-07-29T11:30:57.761Z,26.55
2022-07-29T11:31:57.467Z,26.50
2022-07-29T11:32:57.455Z,26.48
2022-07-29T11:33:57.990Z,26.47
2022-07-29T11:34:57.274Z,26.45
2022-07-29T11:36:00.907Z,26.44
2022-07-29T11:36:59.050Z,26.42
2022-07-29T11:37:57.848Z,26.39
2022-07-29T11:38:57.395Z,26.36
2022-07-29T11:40:01.550Z,26.36
2022-07-29T11:40:58.204Z,26.38
2022-07-29T11:42:00.538Z,26.42
2022-07-29T11:42:58.199Z,26.47
2022-07-29T11:43:57.176Z,26.52
2022-07-29T11:44:57.361Z,26.53
2022-07-29T11:45:57.155Z,26.53
2022-07-29T11:46:57.190Z,26.55
2022-07-29T11:47:59.634Z,26.60
2022-07-29T11:48:58.174Z,26.64
2022-07-29T11:49:57.295Z,26.67
2022-07-29T11:50:58.181Z,26.68
2022-07-29T11:51:57.169Z,26.67
2022-07-29T11:52:57.113Z,26.64
2022-07-29T11:54:01.069Z,26.61
2022-07-29T11:55:58.395Z,26.55
2022-07-29T11:56:57.047Z,26.54
2022-07-29T11:58:03.569Z,26.56
2022-07-29T11:58:58.021Z,26.58
2022-07-29T12:00:01.580Z,26.59
2022-07-29T12:00:58.180Z,26.60
2022-07-29T12:02:12.126Z,26.61
2022-07-29T12:02:58.026Z,26.61
2022-07-29T12:03:57.074Z,26.64
2022-07-29T12:04:56.989Z,26.70
2022-07-29T12:05:57.551Z,26.79
2022-07-29T12:07:00.545Z,26.89
2022-07-29T12:07:56.916Z,26.97
2022-07-29T12:08:56.985Z,26.99
2022-07-29T12:09:57.136Z,27.00
2022-07-29T12:10:56.908Z,27.00
2022-07-29T12:12:00.651Z,26.98
2022-07-29T12:12:57.873Z,26.93
2022-07-29T12:13:56.849Z,26.89
2022-07-29T12:14:56.903Z,26.83
2022-07-29T12:15:56.884Z,26.81
2022-07-29T12:16:56.893Z,26.83
2022-07-29T12:17:58.168Z,26.86
2022-07-29T12:18:56.813Z,26.90
2022-07-29T12:19:56.815Z,26.93
2022-07-29T12:20:56.794Z,26.96
2022-07-29T12:21:59.842Z,26.95
2022-07-29T12:22:58.102Z,26.90
2022-07-29T12:23:57.704Z,26.83
2022-07-29T12:25:02.321Z,26.76
2022-07-29T12:25:57.735Z,26.70
2022-07-29T12:26:56.733Z,26.66
2022-07-29T12:27:56.732Z,26.63
2022-07-29T12:28:56.894Z,26.59
2022-07-29T12:29:56.718Z,26.57
2022-07-29T12:30:56.702Z,26.58
2022-07-29T12:31:57.853Z,26.61
2022-07-29T12:32:56.649Z,26.65
2022-07-29T12:33:56.690Z,26.69
2022-07-29T12:34:57.046Z,26.72
2022-07-29T12:36:07.612Z,26.75
2022-07-29T12:36:57.664Z,26.77
2022-07-29T12:37:56.625Z,26.77
2022-07-29T12:38:56.584Z,26.74
2022-07-29T12:39:56.582Z,26.69
2022-07-29T12:40:56.595Z,26.63
2022-07-29T12:42:03.999Z,26.55
2022-07-29T12:42:57.547Z,26.46
2022-07-29T12:43:56.557Z,26.40
2022-07-29T12:44:56.584Z,26.36
2022-07-29T12:45:56.696Z,26.32
2022-07-29T12:46:56.583Z,26.29
2022-07-29T12:47:56.489Z,26.26
2022-07-29T12:48:56.503Z,26.23
2022-07-29T12:49:56.476Z,26.20
2022-07-29T12:50:56.472Z,26.17
2022-07-29T12:51:56.840Z,26.15
2022-07-29T12:52:56.439Z,26.11